This is the latest recevied weather packets stored in our database for station/object F4JSG-10. If no packets are shown the sender has not sent any weather packets the latest 1 day(s).
| Time | Temp. | Humidity | Pressure | Rain* | Wind** | Luminosity | Snow |
|---|---|---|---|---|---|---|---|
| 1788553701 | 25° C | 48% | 990.1 hPa | - | - | - | - |
| 1788552801 | 25° C | 47% | 990 hPa | - | - | - | - |
| 1788551901 | 25° C | 47% | 989.8 hPa | - | - | - | - |
| 1788551001 | 25.56° C | 47% | 989.8 hPa | - | - | - | - |
| 1788550101 | 25.56° C | 46% | 989.7 hPa | - | - | - | - |
| 1788549187 | 26.67° C | 44% | 989.6 hPa | - | - | - | - |
| 1788548287 | 27.22° C | 43% | 989.4 hPa | - | - | - | - |
| 1788547387 | 27.22° C | 43% | 989.3 hPa | - | - | - | - |
| 1788546487 | 28.33° C | 41% | 989.1 hPa | - | - | - | - |
| 1788545587 | 29.44° C | 38% | 989.1 hPa | - | - | - | - |
| 1788544686 | 30.56° C | 35% | 988.9 hPa | - | - | - | - |
| 1788543786 | 31.67° C | 32% | 988.8 hPa | - | - | - | - |
| 1788542886 | 33.89° C | 30% | 988.5 hPa | - | - | - | - |
| 1788541986 | 35° C | 28% | 988.6 hPa | - | - | - | - |
| 1788541086 | 35.56° C | 27% | 988.6 hPa | - | - | - | - |
| 1788540186 | 36.11° C | 26% | 988.7 hPa | - | - | - | - |
| 1788539463 | 19.44° C | 76% | 993.6 hPa | - | - | - | - |
| 1788539463 | 31.67° C | 32% | 992.9 hPa | - | - | - | - |
| 1788539463 | 32.22° C | 32% | 992.8 hPa | - | - | - | - |
| 1788539286 | 36.67° C | 25% | 988.7 hPa | - | - | - | - |
* Rain since midnight (hover to see other rain measurements)
** Current wind speed in m/s (hover to see current wind gust speed)